sensor_id;sensor_type;location;lat;lon;timestamp;P1;durP1;ratioP1;P2;durP2;ratioP2
64986;SDS011;67903;52.108;9.358;2023-04-15T00:00:54;7.78;;;6.60;;
64986;SDS011;67903;52.108;9.358;2023-04-15T00:03:22;8.13;;;6.35;;
64986;SDS011;67903;52.108;9.358;2023-04-15T00:05:50;7.57;;;6.43;;
64986;SDS011;67903;52.108;9.358;2023-04-15T00:08:17;6.50;;;5.90;;
64986;SDS011;67903;52.108;9.358;2023-04-15T00:10:44;8.52;;;5.97;;
64986;SDS011;67903;52.108;9.358;2023-04-15T00:13:12;8.57;;;6.78;;
64986;SDS011;67903;52.108;9.358;2023-04-15T00:15:38;7.35;;;6.25;;
64986;SDS011;67903;52.108;9.358;2023-04-15T00:18:05;7.97;;;6.53;;
64986;SDS011;67903;52.108;9.358;2023-04-15T00:20:35;7.97;;;7.00;;
64986;SDS011;67903;52.108;9.358;2023-04-15T00:23:02;7.47;;;6.70;;
64986;SDS011;67903;52.108;9.358;2023-04-15T00:25:29;8.45;;;6.70;;
64986;SDS011;67903;52.108;9.358;2023-04-15T00:27:56;7.40;;;6.70;;
64986;SDS011;67903;52.108;9.358;2023-04-15T00:30:23;7.10;;;6.40;;
64986;SDS011;67903;52.108;9.358;2023-04-15T00:32:51;7.03;;;6.32;;
64986;SDS011;67903;52.108;9.358;2023-04-15T00:35:19;8.00;;;6.38;;
64986;SDS011;67903;52.108;9.358;2023-04-15T00:37:48;7.45;;;6.65;;
64986;SDS011;67903;52.108;9.358;2023-04-15T00:40:16;7.55;;;6.80;;
64986;SDS011;67903;52.108;9.358;2023-04-15T00:42:44;6.97;;;6.38;;
64986;SDS011;67903;52.108;9.358;2023-04-15T00:45:12;6.82;;;6.13;;
64986;SDS011;67903;52.108;9.358;2023-04-15T00:47:42;8.52;;;7.60;;
64986;SDS011;67903;52.108;9.358;2023-04-15T00:50:10;7.82;;;6.70;;
64986;SDS011;67903;52.108;9.358;2023-04-15T00:52:38;7.68;;;6.85;;
64986;SDS011;67903;52.108;9.358;2023-04-15T00:55:05;8.32;;;6.60;;
64986;SDS011;67903;52.108;9.358;2023-04-15T00:57:33;7.47;;;6.65;;
64986;SDS011;67903;52.108;9.358;2023-04-15T01:00:01;7.20;;;6.50;;
64986;SDS011;67903;52.108;9.358;2023-04-15T01:02:30;7.55;;;6.85;;
64986;SDS011;67903;52.108;9.358;2023-04-15T01:04:58;8.10;;;7.07;;
64986;SDS011;67903;52.108;9.358;2023-04-15T01:07:24;7.10;;;6.47;;
64986;SDS011;67903;52.108;9.358;2023-04-15T01:09:52;8.63;;;7.18;;
64986;SDS011;67903;52.108;9.358;2023-04-15T01:12:19;8.45;;;7.15;;
64986;SDS011;67903;52.108;9.358;2023-04-15T01:14:46;8.10;;;6.70;;
64986;SDS011;67903;52.108;9.358;2023-04-15T01:17:13;8.65;;;7.30;;
64986;SDS011;67903;52.108;9.358;2023-04-15T01:19:40;7.63;;;6.90;;
64986;SDS011;67903;52.108;9.358;2023-04-15T01:22:07;8.60;;;7.75;;
64986;SDS011;67903;52.108;9.358;2023-04-15T01:24:37;8.60;;;7.65;;
64986;SDS011;67903;52.108;9.358;2023-04-15T01:27:04;8.32;;;7.53;;
64986;SDS011;67903;52.108;9.358;2023-04-15T01:29:32;8.93;;;8.02;;
64986;SDS011;67903;52.108;9.358;2023-04-15T01:32:01;8.82;;;8.02;;
64986;SDS011;67903;52.108;9.358;2023-04-15T01:34:28;8.90;;;8.00;;
64986;SDS011;67903;52.108;9.358;2023-04-15T01:36:54;8.90;;;8.00;;
64986;SDS011;67903;52.108;9.358;2023-04-15T01:39:21;8.95;;;8.15;;
64986;SDS011;67903;52.108;9.358;2023-04-15T01:41:48;9.02;;;8.13;;
64986;SDS011;67903;52.108;9.358;2023-04-15T01:44:15;9.30;;;8.38;;
64986;SDS011;67903;52.108;9.358;2023-04-15T01:46:42;9.65;;;8.30;;
64986;SDS011;67903;52.108;9.358;2023-04-15T01:49:09;10.38;;;8.25;;
64986;SDS011;67903;52.108;9.358;2023-04-15T01:51:35;10.07;;;9.07;;
64986;SDS011;67903;52.108;9.358;2023-04-15T01:54:02;9.90;;;8.77;;
64986;SDS011;67903;52.108;9.358;2023-04-15T01:56:29;9.63;;;8.63;;
64986;SDS011;67903;52.108;9.358;2023-04-15T01:58:56;9.80;;;8.80;;
64986;SDS011;67903;52.108;9.358;2023-04-15T02:01:25;9.52;;;8.52;;
64986;SDS011;67903;52.108;9.358;2023-04-15T02:03:52;10.52;;;8.73;;
64986;SDS011;67903;52.108;9.358;2023-04-15T02:06:19;10.35;;;8.68;;
64986;SDS011;67903;52.108;9.358;2023-04-15T02:08:46;11.23;;;8.93;;
64986;SDS011;67903;52.108;9.358;2023-04-15T02:11:13;10.13;;;8.77;;
64986;SDS011;67903;52.108;9.358;2023-04-15T02:13:40;10.35;;;9.10;;
64986;SDS011;67903;52.108;9.358;2023-04-15T02:16:17;9.95;;;8.60;;
64986;SDS011;67903;52.108;9.358;2023-04-15T02:18:45;10.05;;;9.05;;
64986;SDS011;67903;52.108;9.358;2023-04-15T02:21:12;10.70;;;9.63;;
64986;SDS011;67903;52.108;9.358;2023-04-15T02:23:39;10.07;;;9.07;;
64986;SDS011;67903;52.108;9.358;2023-04-15T02:26:06;9.63;;;8.63;;
64986;SDS011;67903;52.108;9.358;2023-04-15T02:28:33;9.48;;;8.52;;
64986;SDS011;67903;52.108;9.358;2023-04-15T02:31:04;9.32;;;8.32;;
64986;SDS011;67903;52.108;9.358;2023-04-15T02:33:34;9.55;;;8.65;;
64986;SDS011;67903;52.108;9.358;2023-04-15T02:36:03;9.65;;;8.60;;
64986;SDS011;67903;52.108;9.358;2023-04-15T02:38:30;9.35;;;8.35;;
64986;SDS011;67903;52.108;9.358;2023-04-15T02:40:57;11.98;;;8.88;;
64986;SDS011;67903;52.108;9.358;2023-04-15T02:43:24;9.35;;;8.45;;
64986;SDS011;67903;52.108;9.358;2023-04-15T02:45:51;10.48;;;8.38;;
64986;SDS011;67903;52.108;9.358;2023-04-15T02:48:19;9.15;;;8.20;;
64986;SDS011;67903;52.108;9.358;2023-04-15T02:50:47;8.98;;;8.07;;
64986;SDS011;67903;52.108;9.358;2023-04-15T02:53:15;9.32;;;8.35;;
64986;SDS011;67903;52.108;9.358;2023-04-15T02:55:42;8.77;;;7.97;;
64986;SDS011;67903;52.108;9.358;2023-04-15T02:58:09;9.05;;;8.25;;
64986;SDS011;67903;52.108;9.358;2023-04-15T03:00:36;9.63;;;8.55;;
64986;SDS011;67903;52.108;9.358;2023-04-15T03:03:03;9.75;;;8.63;;
64986;SDS011;67903;52.108;9.358;2023-04-15T03:05:31;10.65;;;8.75;;
64986;SDS011;67903;52.108;9.358;2023-04-15T03:07:59;9.68;;;8.65;;
64986;SDS011;67903;52.108;9.358;2023-04-15T03:10:26;10.43;;;8.50;;
64986;SDS011;67903;52.108;9.358;2023-04-15T03:12:54;9.85;;;8.25;;
64986;SDS011;67903;52.108;9.358;2023-04-15T03:15:22;9.32;;;8.30;;
64986;SDS011;67903;52.108;9.358;2023-04-15T03:17:51;11.15;;;8.35;;
64986;SDS011;67903;52.108;9.358;2023-04-15T03:20:18;9.10;;;8.20;;
64986;SDS011;67903;52.108;9.358;2023-04-15T03:22:46;9.82;;;8.68;;
64986;SDS011;67903;52.108;9.358;2023-04-15T03:25:13;10.05;;;8.90;;
64986;SDS011;67903;52.108;9.358;2023-04-15T03:27:41;10.45;;;9.35;;
64986;SDS011;67903;52.108;9.358;2023-04-15T03:30:09;10.75;;;9.05;;
64986;SDS011;67903;52.108;9.358;2023-04-15T03:32:37;9.95;;;8.40;;
64986;SDS011;67903;52.108;9.358;2023-04-15T03:35:05;9.73;;;8.52;;
64986;SDS011;67903;52.108;9.358;2023-04-15T03:37:33;9.52;;;8.40;;
64986;SDS011;67903;52.108;9.358;2023-04-15T03:40:00;10.65;;;9.32;;
64986;SDS011;67903;52.108;9.358;2023-04-15T03:42:27;10.50;;;9.40;;
64986;SDS011;67903;52.108;9.358;2023-04-15T03:44:54;10.52;;;9.02;;
64986;SDS011;67903;52.108;9.358;2023-04-15T03:47:21;10.55;;;9.52;;
64986;SDS011;67903;52.108;9.358;2023-04-15T03:49:48;13.13;;;10.25;;
64986;SDS011;67903;52.108;9.358;2023-04-15T03:52:14;11.48;;;10.27;;
64986;SDS011;67903;52.108;9.358;2023-04-15T03:54:41;11.60;;;10.25;;
64986;SDS011;67903;52.108;9.358;2023-04-15T03:57:08;11.48;;;10.27;;
64986;SDS011;67903;52.108;9.358;2023-04-15T03:59:35;12.02;;;10.45;;
64986;SDS011;67903;52.108;9.358;2023-04-15T04:02:02;11.43;;;10.27;;
64986;SDS011;67903;52.108;9.358;2023-04-15T04:04:28;12.98;;;10.40;;
64986;SDS011;67903;52.108;9.358;2023-04-15T04:06:55;11.88;;;9.90;;
64986;SDS011;67903;52.108;9.358;2023-04-15T04:09:22;12.95;;;11.07;;
64986;SDS011;67903;52.108;9.358;2023-04-15T04:11:49;12.35;;;10.50;;
64986;SDS011;67903;52.108;9.358;2023-04-15T04:14:15;11.98;;;10.35;;
64986;SDS011;67903;52.108;9.358;2023-04-15T04:16:42;12.93;;;11.55;;
64986;SDS011;67903;52.108;9.358;2023-04-15T04:19:10;13.00;;;11.07;;
64986;SDS011;67903;52.108;9.358;2023-04-15T04:21:39;14.13;;;11.63;;
64986;SDS011;67903;52.108;9.358;2023-04-15T04:24:05;13.52;;;11.75;;
64986;SDS011;67903;52.108;9.358;2023-04-15T04:26:32;13.40;;;11.40;;
64986;SDS011;67903;52.108;9.358;2023-04-15T04:28:59;14.20;;;12.20;;
64986;SDS011;67903;52.108;9.358;2023-04-15T04:31:26;12.57;;;11.02;;
64986;SDS011;67903;52.108;9.358;2023-04-15T04:33:53;14.13;;;12.35;;
64986;SDS011;67903;52.108;9.358;2023-04-15T04:36:20;14.75;;;13.00;;
64986;SDS011;67903;52.108;9.358;2023-04-15T04:38:46;13.77;;;11.77;;
64986;SDS011;67903;52.108;9.358;2023-04-15T04:41:13;13.05;;;11.73;;
64986;SDS011;67903;52.108;9.358;2023-04-15T04:43:40;13.32;;;11.90;;
64986;SDS011;67903;52.108;9.358;2023-04-15T04:46:06;13.57;;;11.88;;
64986;SDS011;67903;52.108;9.358;2023-04-15T04:48:33;14.65;;;12.20;;
64986;SDS011;67903;52.108;9.358;2023-04-15T04:51:00;15.20;;;12.77;;
64986;SDS011;67903;52.108;9.358;2023-04-15T04:53:27;15.35;;;13.10;;
64986;SDS011;67903;52.108;9.358;2023-04-15T04:55:54;15.98;;;12.65;;
64986;SDS011;67903;52.108;9.358;2023-04-15T04:58:21;17.23;;;13.35;;
64986;SDS011;67903;52.108;9.358;2023-04-15T05:00:47;15.40;;;12.98;;
64986;SDS011;67903;52.108;9.358;2023-04-15T05:03:14;18.33;;;14.75;;
64986;SDS011;67903;52.108;9.358;2023-04-15T05:05:41;18.63;;;14.75;;
64986;SDS011;67903;52.108;9.358;2023-04-15T05:08:08;17.45;;;13.43;;
64986;SDS011;67903;52.108;9.358;2023-04-15T05:10:35;17.55;;;13.65;;
64986;SDS011;67903;52.108;9.358;2023-04-15T05:13:02;18.48;;;15.07;;
64986;SDS011;67903;52.108;9.358;2023-04-15T05:15:29;18.95;;;15.43;;
64986;SDS011;67903;52.108;9.358;2023-04-15T05:17:55;19.35;;;15.43;;
64986;SDS011;67903;52.108;9.358;2023-04-15T05:20:22;18.98;;;14.13;;
64986;SDS011;67903;52.108;9.358;2023-04-15T05:22:49;19.45;;;15.63;;
64986;SDS011;67903;52.108;9.358;2023-04-15T05:25:16;18.77;;;15.82;;
64986;SDS011;67903;52.108;9.358;2023-04-15T05:27:43;20.00;;;15.63;;
64986;SDS011;67903;52.108;9.358;2023-04-15T05:30:09;19.27;;;15.30;;
64986;SDS011;67903;52.108;9.358;2023-04-15T05:32:39;19.85;;;15.85;;
64986;SDS011;67903;52.108;9.358;2023-04-15T05:35:06;19.70;;;15.90;;
64986;SDS011;67903;52.108;9.358;2023-04-15T05:37:33;20.02;;;16.60;;
64986;SDS011;67903;52.108;9.358;2023-04-15T05:40:00;21.58;;;17.27;;
64986;SDS011;67903;52.108;9.358;2023-04-15T05:42:27;18.67;;;15.45;;
64986;SDS011;67903;52.108;9.358;2023-04-15T05:44:54;17.80;;;14.25;;
64986;SDS011;67903;52.108;9.358;2023-04-15T05:47:21;17.88;;;15.00;;
64986;SDS011;67903;52.108;9.358;2023-04-15T05:49:48;15.60;;;13.43;;
64986;SDS011;67903;52.108;9.358;2023-04-15T05:52:14;15.30;;;12.13;;
64986;SDS011;67903;52.108;9.358;2023-04-15T05:54:41;17.95;;;13.68;;
64986;SDS011;67903;52.108;9.358;2023-04-15T05:57:08;18.58;;;14.27;;
64986;SDS011;67903;52.108;9.358;2023-04-15T05:59:35;18.38;;;14.73;;
64986;SDS011;67903;52.108;9.358;2023-04-15T06:02:02;17.98;;;13.68;;
64986;SDS011;67903;52.108;9.358;2023-04-15T06:04:28;18.83;;;14.52;;
64986;SDS011;67903;52.108;9.358;2023-04-15T06:06:55;19.95;;;15.25;;
64986;SDS011;67903;52.108;9.358;2023-04-15T06:09:23;22.48;;;17.25;;
64986;SDS011;67903;52.108;9.358;2023-04-15T06:11:50;20.23;;;17.02;;
64986;SDS011;67903;52.108;9.358;2023-04-15T06:14:17;24.15;;;18.88;;
64986;SDS011;67903;52.108;9.358;2023-04-15T06:16:44;21.30;;;17.95;;
64986;SDS011;67903;52.108;9.358;2023-04-15T06:19:10;24.02;;;18.02;;
64986;SDS011;67903;52.108;9.358;2023-04-15T06:21:37;26.15;;;18.83;;
64986;SDS011;67903;52.108;9.358;2023-04-15T06:24:04;24.35;;;19.88;;
64986;SDS011;67903;52.108;9.358;2023-04-15T06:26:31;24.60;;;19.40;;
64986;SDS011;67903;52.108;9.358;2023-04-15T06:28:58;26.60;;;18.92;;
64986;SDS011;67903;52.108;9.358;2023-04-15T06:31:25;25.13;;;19.80;;
64986;SDS011;67903;52.108;9.358;2023-04-15T06:33:52;27.73;;;20.25;;
64986;SDS011;67903;52.108;9.358;2023-04-15T06:36:19;23.95;;;18.88;;
64986;SDS011;67903;52.108;9.358;2023-04-15T06:38:46;42.88;;;31.67;;
64986;SDS011;67903;52.108;9.358;2023-04-15T06:41:13;76.53;;;48.33;;
64986;SDS011;67903;52.108;9.358;2023-04-15T06:43:40;40.45;;;31.92;;
64986;SDS011;67903;52.108;9.358;2023-04-15T06:46:07;23.52;;;19.70;;
64986;SDS011;67903;52.108;9.358;2023-04-15T06:48:34;31.17;;;23.67;;
64986;SDS011;67903;52.108;9.358;2023-04-15T06:51:01;29.02;;;21.30;;
64986;SDS011;67903;52.108;9.358;2023-04-15T06:53:29;20.23;;;17.02;;
64986;SDS011;67903;52.108;9.358;2023-04-15T06:55:56;23.25;;;16.67;;
64986;SDS011;67903;52.108;9.358;2023-04-15T06:58:22;22.50;;;17.23;;
64986;SDS011;67903;52.108;9.358;2023-04-15T07:00:49;20.85;;;15.77;;
64986;SDS011;67903;52.108;9.358;2023-04-15T07:03:16;25.25;;;17.73;;
64986;SDS011;67903;52.108;9.358;2023-04-15T07:05:43;23.02;;;17.58;;
64986;SDS011;67903;52.108;9.358;2023-04-15T07:08:10;28.00;;;19.00;;
64986;SDS011;67903;52.108;9.358;2023-04-15T07:10:37;19.55;;;14.55;;
64986;SDS011;67903;52.108;9.358;2023-04-15T07:13:04;20.17;;;15.90;;
64986;SDS011;67903;52.108;9.358;2023-04-15T07:15:32;18.98;;;14.55;;
64986;SDS011;67903;52.108;9.358;2023-04-15T07:17:59;23.85;;;15.75;;
64986;SDS011;67903;52.108;9.358;2023-04-15T07:20:26;21.92;;;14.68;;
64986;SDS011;67903;52.108;9.358;2023-04-15T07:22:52;18.48;;;14.88;;
64986;SDS011;67903;52.108;9.358;2023-04-15T07:25:20;20.90;;;16.17;;
64986;SDS011;67903;52.108;9.358;2023-04-15T07:27:47;21.33;;;16.60;;
64986;SDS011;67903;52.108;9.358;2023-04-15T07:30:13;17.50;;;13.85;;
64986;SDS011;67903;52.108;9.358;2023-04-15T07:32:41;19.60;;;16.05;;
64986;SDS011;67903;52.108;9.358;2023-04-15T07:35:08;17.60;;;12.77;;
64986;SDS011;67903;52.108;9.358;2023-04-15T07:37:35;18.27;;;14.00;;
64986;SDS011;67903;52.108;9.358;2023-04-15T07:40:02;18.45;;;14.23;;
64986;SDS011;67903;52.108;9.358;2023-04-15T07:42:30;26.08;;;20.10;;
64986;SDS011;67903;52.108;9.358;2023-04-15T07:44:58;21.40;;;15.57;;
64986;SDS011;67903;52.108;9.358;2023-04-15T07:47:24;31.35;;;20.90;;
64986;SDS011;67903;52.108;9.358;2023-04-15T07:49:52;21.05;;;16.60;;
64986;SDS011;67903;52.108;9.358;2023-04-15T07:52:19;18.45;;;14.73;;
64986;SDS011;67903;52.108;9.358;2023-04-15T07:54:45;16.73;;;14.50;;
64986;SDS011;67903;52.108;9.358;2023-04-15T07:57:12;38.63;;;30.25;;
64986;SDS011;67903;52.108;9.358;2023-04-15T07:59:39;19.40;;;14.80;;
64986;SDS011;67903;52.108;9.358;2023-04-15T08:02:05;18.77;;;14.15;;
64986;SDS011;67903;52.108;9.358;2023-04-15T08:04:33;19.90;;;14.02;;
64986;SDS011;67903;52.108;9.358;2023-04-15T08:07:00;17.42;;;14.15;;
64986;SDS011;67903;52.108;9.358;2023-04-15T08:09:27;17.92;;;14.10;;
64986;SDS011;67903;52.108;9.358;2023-04-15T08:11:54;17.85;;;13.27;;
64986;SDS011;67903;52.108;9.358;2023-04-15T08:14:23;16.67;;;13.70;;
64986;SDS011;67903;52.108;9.358;2023-04-15T08:16:49;17.42;;;13.48;;
64986;SDS011;67903;52.108;9.358;2023-04-15T08:19:16;16.92;;;13.13;;
64986;SDS011;67903;52.108;9.358;2023-04-15T08:21:43;19.33;;;14.52;;
64986;SDS011;67903;52.108;9.358;2023-04-15T08:24:10;19.05;;;13.73;;
64986;SDS011;67903;52.108;9.358;2023-04-15T08:26:37;18.70;;;13.32;;
64986;SDS011;67903;52.108;9.358;2023-04-15T08:29:04;17.92;;;13.85;;
64986;SDS011;67903;52.108;9.358;2023-04-15T08:31:30;20.10;;;15.40;;
64986;SDS011;67903;52.108;9.358;2023-04-15T08:33:57;18.33;;;14.32;;
64986;SDS011;67903;52.108;9.358;2023-04-15T08:36:24;67.75;;;45.20;;
64986;SDS011;67903;52.108;9.358;2023-04-15T08:38:52;66.55;;;38.85;;
64986;SDS011;67903;52.108;9.358;2023-04-15T08:41:22;26.10;;;19.50;;
64986;SDS011;67903;52.108;9.358;2023-04-15T08:43:51;28.88;;;20.77;;
64986;SDS011;67903;52.108;9.358;2023-04-15T08:46:20;15.75;;;12.68;;
64986;SDS011;67903;52.108;9.358;2023-04-15T08:48:48;15.38;;;11.63;;
64986;SDS011;67903;52.108;9.358;2023-04-15T08:51:16;12.95;;;11.00;;
64986;SDS011;67903;52.108;9.358;2023-04-15T08:53:43;16.25;;;12.30;;
64986;SDS011;67903;52.108;9.358;2023-04-15T08:56:11;26.73;;;19.63;;
64986;SDS011;67903;52.108;9.358;2023-04-15T08:58:42;16.02;;;11.68;;
64986;SDS011;67903;52.108;9.358;2023-04-15T09:01:12;13.18;;;10.70;;
64986;SDS011;67903;52.108;9.358;2023-04-15T09:03:40;14.63;;;11.88;;
64986;SDS011;67903;52.108;9.358;2023-04-15T09:06:07;14.23;;;11.38;;
64986;SDS011;67903;52.108;9.358;2023-04-15T09:08:34;14.25;;;11.20;;
64986;SDS011;67903;52.108;9.358;2023-04-15T09:11:01;13.85;;;11.27;;
64986;SDS011;67903;52.108;9.358;2023-04-15T09:13:28;13.02;;;10.77;;
64986;SDS011;67903;52.108;9.358;2023-04-15T09:15:56;15.80;;;12.25;;
64986;SDS011;67903;52.108;9.358;2023-04-15T09:18:29;15.75;;;11.95;;
64986;SDS011;67903;52.108;9.358;2023-04-15T09:21:08;14.88;;;11.43;;
64986;SDS011;67903;52.108;9.358;2023-04-15T09:23:37;13.02;;;10.48;;
64986;SDS011;67903;52.108;9.358;2023-04-15T09:26:05;13.18;;;11.18;;
64986;SDS011;67903;52.108;9.358;2023-04-15T09:28:32;13.30;;;10.85;;
64986;SDS011;67903;52.108;9.358;2023-04-15T09:31:06;15.77;;;12.57;;
64986;SDS011;67903;52.108;9.358;2023-04-15T09:33:33;13.70;;;11.30;;
64986;SDS011;67903;52.108;9.358;2023-04-15T09:36:01;14.63;;;11.95;;
64986;SDS011;67903;52.108;9.358;2023-04-15T09:38:30;16.98;;;12.43;;
64986;SDS011;67903;52.108;9.358;2023-04-15T09:40:57;14.30;;;12.45;;
64986;SDS011;67903;52.108;9.358;2023-04-15T09:43:37;14.57;;;11.82;;
64986;SDS011;67903;52.108;9.358;2023-04-15T09:46:05;13.23;;;11.40;;
64986;SDS011;67903;52.108;9.358;2023-04-15T09:48:32;15.05;;;11.77;;
64986;SDS011;67903;52.108;9.358;2023-04-15T09:50:59;14.07;;;11.85;;
64986;SDS011;67903;52.108;9.358;2023-04-15T09:53:26;12.98;;;11.00;;
64986;SDS011;67903;52.108;9.358;2023-04-15T09:55:57;14.00;;;11.57;;
64986;SDS011;67903;52.108;9.358;2023-04-15T09:58:28;14.48;;;11.10;;
64986;SDS011;67903;52.108;9.358;2023-04-15T10:00:59;14.48;;;12.65;;
64986;SDS011;67903;52.108;9.358;2023-04-15T10:03:28;15.18;;;11.95;;
64986;SDS011;67903;52.108;9.358;2023-04-15T10:05:58;14.60;;;12.05;;
64986;SDS011;67903;52.108;9.358;2023-04-15T10:08:27;15.85;;;12.38;;
64986;SDS011;67903;52.108;9.358;2023-04-15T10:10:58;11.88;;;9.77;;
64986;SDS011;67903;52.108;9.358;2023-04-15T10:13:28;11.32;;;9.32;;
64986;SDS011;67903;52.108;9.358;2023-04-15T10:16:05;9.60;;;8.60;;
64986;SDS011;67903;52.108;9.358;2023-04-15T10:18:37;9.70;;;8.35;;
64986;SDS011;67903;52.108;9.358;2023-04-15T10:21:08;9.90;;;8.90;;
64986;SDS011;67903;52.108;9.358;2023-04-15T10:23:35;8.00;;;7.20;;
64986;SDS011;67903;52.108;9.358;2023-04-15T10:26:03;8.80;;;7.88;;
64986;SDS011;67903;52.108;9.358;2023-04-15T10:28:31;7.45;;;6.65;;
64986;SDS011;67903;52.108;9.358;2023-04-15T10:30:58;7.15;;;6.28;;
64986;SDS011;67903;52.108;9.358;2023-04-15T10:33:25;6.25;;;5.65;;
64986;SDS011;67903;52.108;9.358;2023-04-15T10:35:54;6.13;;;5.53;;
64986;SDS011;67903;52.108;9.358;2023-04-15T10:38:37;6.18;;;5.53;;
64986;SDS011;67903;52.108;9.358;2023-04-15T10:41:13;6.20;;;5.40;;
64986;SDS011;67903;52.108;9.358;2023-04-15T10:43:55;6.50;;;5.90;;
64986;SDS011;67903;52.108;9.358;2023-04-15T10:46:33;6.55;;;5.82;;
64986;SDS011;67903;52.108;9.358;2023-04-15T10:49:06;7.32;;;6.63;;
64986;SDS011;67903;52.108;9.358;2023-04-15T10:51:39;6.70;;;6.00;;
64986;SDS011;67903;52.108;9.358;2023-04-15T10:59:31;7.10;;;6.20;;
64986;SDS011;67903;52.108;9.358;2023-04-15T11:02:04;6.32;;;5.38;;
64986;SDS011;67903;52.108;9.358;2023-04-15T11:12:39;6.90;;;5.68;;
64986;SDS011;67903;52.108;9.358;2023-04-15T11:17:52;5.93;;;5.03;;
64986;SDS011;67903;52.108;9.358;2023-04-15T11:20:19;5.70;;;5.20;;
64986;SDS011;67903;52.108;9.358;2023-04-15T11:22:49;6.30;;;5.53;;
64986;SDS011;67903;52.108;9.358;2023-04-15T11:25:34;6.60;;;5.90;;
64986;SDS011;67903;52.108;9.358;2023-04-15T11:28:03;5.75;;;5.05;;
64986;SDS011;67903;52.108;9.358;2023-04-15T11:30:31;6.40;;;5.70;;
64986;SDS011;67903;52.108;9.358;2023-04-15T11:33:00;6.05;;;5.45;;
64986;SDS011;67903;52.108;9.358;2023-04-15T11:35:32;6.40;;;5.80;;
64986;SDS011;67903;52.108;9.358;2023-04-15T11:38:03;6.70;;;5.78;;
64986;SDS011;67903;52.108;9.358;2023-04-15T11:40:31;7.63;;;6.13;;
64986;SDS011;67903;52.108;9.358;2023-04-15T11:45:30;8.38;;;6.55;;
64986;SDS011;67903;52.108;9.358;2023-04-15T11:48:04;8.65;;;6.40;;
64986;SDS011;67903;52.108;9.358;2023-04-15T11:50:36;6.35;;;5.75;;
64986;SDS011;67903;52.108;9.358;2023-04-15T11:53:06;7.82;;;7.03;;
64986;SDS011;67903;52.108;9.358;2023-04-15T11:55:44;7.90;;;7.03;;
64986;SDS011;67903;52.108;9.358;2023-04-15T12:00:50;8.73;;;7.50;;
64986;SDS011;67903;52.108;9.358;2023-04-15T12:03:26;9.02;;;8.13;;
64986;SDS011;67903;52.108;9.358;2023-04-15T12:06:20;8.73;;;7.43;;
64986;SDS011;67903;52.108;9.358;2023-04-15T12:11:28;10.07;;;8.20;;
64986;SDS011;67903;52.108;9.358;2023-04-15T12:14:05;9.57;;;8.20;;
64986;SDS011;67903;52.108;9.358;2023-04-15T12:16:59;10.32;;;8.68;;
64986;SDS011;67903;52.108;9.358;2023-04-15T12:21:58;11.07;;;8.93;;
64986;SDS011;67903;52.108;9.358;2023-04-15T12:24:32;10.15;;;8.52;;
64986;SDS011;67903;52.108;9.358;2023-04-15T12:27:01;10.43;;;9.32;;
64986;SDS011;67903;52.108;9.358;2023-04-15T12:29:29;11.43;;;9.80;;
64986;SDS011;67903;52.108;9.358;2023-04-15T12:32:09;11.00;;;9.25;;
64986;SDS011;67903;52.108;9.358;2023-04-15T12:34:39;10.45;;;9.30;;
64986;SDS011;67903;52.108;9.358;2023-04-15T12:37:09;11.30;;;9.57;;
64986;SDS011;67903;52.108;9.358;2023-04-15T12:39:38;11.45;;;9.25;;
64986;SDS011;67903;52.108;9.358;2023-04-15T12:42:06;12.30;;;10.77;;
64986;SDS011;67903;52.108;9.358;2023-04-15T12:44:34;11.50;;;10.25;;
64986;SDS011;67903;52.108;9.358;2023-04-15T12:47:02;14.70;;;11.40;;
64986;SDS011;67903;52.108;9.358;2023-04-15T12:49:29;12.55;;;10.60;;
64986;SDS011;67903;52.108;9.358;2023-04-15T12:51:58;14.90;;;11.95;;
64986;SDS011;67903;52.108;9.358;2023-04-15T12:54:26;15.38;;;12.15;;
64986;SDS011;67903;52.108;9.358;2023-04-15T12:56:54;19.27;;;12.95;;
64986;SDS011;67903;52.108;9.358;2023-04-15T12:59:22;16.05;;;13.02;;
64986;SDS011;67903;52.108;9.358;2023-04-15T13:01:52;15.98;;;13.52;;
64986;SDS011;67903;52.108;9.358;2023-04-15T13:04:19;17.00;;;13.15;;
64986;SDS011;67903;52.108;9.358;2023-04-15T13:06:47;13.45;;;11.27;;
64986;SDS011;67903;52.108;9.358;2023-04-15T13:09:14;17.77;;;13.75;;
64986;SDS011;67903;52.108;9.358;2023-04-15T13:11:41;18.17;;;14.20;;
64986;SDS011;67903;52.108;9.358;2023-04-15T13:14:08;19.55;;;13.90;;
64986;SDS011;67903;52.108;9.358;2023-04-15T13:16:37;17.85;;;13.88;;
64986;SDS011;67903;52.108;9.358;2023-04-15T13:19:04;18.73;;;15.18;;
64986;SDS011;67903;52.108;9.358;2023-04-15T13:21:30;21.27;;;15.65;;
64986;SDS011;67903;52.108;9.358;2023-04-15T13:24:01;23.10;;;16.20;;
64986;SDS011;67903;52.108;9.358;2023-04-15T13:26:29;24.52;;;16.92;;
64986;SDS011;67903;52.108;9.358;2023-04-15T13:28:57;21.98;;;15.98;;
64986;SDS011;67903;52.108;9.358;2023-04-15T13:31:23;23.75;;;16.17;;
64986;SDS011;67903;52.108;9.358;2023-04-15T13:33:50;27.40;;;17.30;;
64986;SDS011;67903;52.108;9.358;2023-04-15T13:36:17;22.55;;;16.80;;
64986;SDS011;67903;52.108;9.358;2023-04-15T13:38:44;22.30;;;16.95;;
64986;SDS011;67903;52.108;9.358;2023-04-15T13:41:12;27.25;;;17.85;;
64986;SDS011;67903;52.108;9.358;2023-04-15T13:43:39;23.15;;;17.95;;
64986;SDS011;67903;52.108;9.358;2023-04-15T13:46:07;25.42;;;17.58;;
64986;SDS011;67903;52.108;9.358;2023-04-15T13:48:33;24.73;;;18.60;;
64986;SDS011;67903;52.108;9.358;2023-04-15T13:51:01;27.52;;;18.23;;
64986;SDS011;67903;52.108;9.358;2023-04-15T13:53:28;25.35;;;18.63;;
64986;SDS011;67903;52.108;9.358;2023-04-15T13:56:04;24.52;;;18.38;;
64986;SDS011;67903;52.108;9.358;2023-04-15T13:58:32;56.70;;;39.55;;
64986;SDS011;67903;52.108;9.358;2023-04-15T14:00:58;107.13;;;69.07;;
64986;SDS011;67903;52.108;9.358;2023-04-15T14:03:27;119.30;;;79.25;;
64986;SDS011;67903;52.108;9.358;2023-04-15T14:05:54;44.10;;;29.23;;
64986;SDS011;67903;52.108;9.358;2023-04-15T14:08:22;34.95;;;24.88;;
64986;SDS011;67903;52.108;9.358;2023-04-15T14:10:50;29.50;;;20.25;;
64986;SDS011;67903;52.108;9.358;2023-04-15T14:13:16;28.42;;;20.58;;
64986;SDS011;67903;52.108;9.358;2023-04-15T14:15:44;46.00;;;31.13;;
64986;SDS011;67903;52.108;9.358;2023-04-15T14:18:12;32.83;;;21.52;;
64986;SDS011;67903;52.108;9.358;2023-04-15T14:20:38;42.47;;;29.65;;
64986;SDS011;67903;52.108;9.358;2023-04-15T14:23:06;28.80;;;21.92;;
64986;SDS011;67903;52.108;9.358;2023-04-15T14:25:32;28.88;;;19.15;;
64986;SDS011;67903;52.108;9.358;2023-04-15T14:28:00;26.65;;;18.67;;
64986;SDS011;67903;52.108;9.358;2023-04-15T14:30:27;28.60;;;20.45;;
64986;SDS011;67903;52.108;9.358;2023-04-15T14:32:54;29.42;;;21.42;;
64986;SDS011;67903;52.108;9.358;2023-04-15T14:35:21;30.83;;;20.95;;
64986;SDS011;67903;52.108;9.358;2023-04-15T14:37:49;31.73;;;21.02;;
64986;SDS011;67903;52.108;9.358;2023-04-15T14:40:16;31.77;;;22.35;;
64986;SDS011;67903;52.108;9.358;2023-04-15T14:42:43;35.53;;;22.92;;
64986;SDS011;67903;52.108;9.358;2023-04-15T14:45:11;33.88;;;23.48;;
64986;SDS011;67903;52.108;9.358;2023-04-15T14:47:38;32.72;;;22.65;;
64986;SDS011;67903;52.108;9.358;2023-04-15T14:50:05;35.28;;;23.08;;
64986;SDS011;67903;52.108;9.358;2023-04-15T14:52:32;29.63;;;21.77;;
64986;SDS011;67903;52.108;9.358;2023-04-15T14:55:04;34.25;;;22.85;;
64986;SDS011;67903;52.108;9.358;2023-04-15T14:57:32;32.72;;;23.73;;
64986;SDS011;67903;52.108;9.358;2023-04-15T14:59:59;33.35;;;23.77;;
64986;SDS011;67903;52.108;9.358;2023-04-15T15:02:26;32.63;;;23.33;;